sensor_id;sensor_type;location;lat;lon;timestamp;P1;durP1;ratioP1;P2;durP2;ratioP2
21848;SDS011;11089;49.852;19.700;2022-10-22T00:00:37;25.15;;;12.55;;
21848;SDS011;11089;49.852;19.700;2022-10-22T00:03:38;30.88;;;12.85;;
21848;SDS011;11089;49.852;19.700;2022-10-22T00:06:39;23.92;;;12.05;;
21848;SDS011;11089;49.852;19.700;2022-10-22T00:09:41;24.60;;;12.25;;
21848;SDS011;11089;49.852;19.700;2022-10-22T00:12:42;25.27;;;12.30;;
21848;SDS011;11089;49.852;19.700;2022-10-22T00:15:43;23.02;;;12.40;;
21848;SDS011;11089;49.852;19.700;2022-10-22T00:18:44;25.75;;;13.05;;
21848;SDS011;11089;49.852;19.700;2022-10-22T00:21:45;24.08;;;11.82;;
21848;SDS011;11089;49.852;19.700;2022-10-22T00:24:46;23.23;;;12.27;;
21848;SDS011;11089;49.852;19.700;2022-10-22T00:27:47;28.13;;;14.07;;
21848;SDS011;11089;49.852;19.700;2022-10-22T00:30:54;25.65;;;11.95;;
21848;SDS011;11089;49.852;19.700;2022-10-22T00:33:56;27.52;;;12.23;;
21848;SDS011;11089;49.852;19.700;2022-10-22T00:36:57;20.85;;;10.70;;
21848;SDS011;11089;49.852;19.700;2022-10-22T00:39:58;23.08;;;11.60;;
21848;SDS011;11089;49.852;19.700;2022-10-22T00:42:59;24.48;;;11.57;;
21848;SDS011;11089;49.852;19.700;2022-10-22T00:46:00;21.42;;;10.23;;
21848;SDS011;11089;49.852;19.700;2022-10-22T00:49:01;16.98;;;9.27;;
21848;SDS011;11089;49.852;19.700;2022-10-22T00:52:03;17.55;;;9.95;;
21848;SDS011;11089;49.852;19.700;2022-10-22T00:55:05;18.52;;;9.38;;
21848;SDS011;11089;49.852;19.700;2022-10-22T00:58:06;15.05;;;8.73;;
21848;SDS011;11089;49.852;19.700;2022-10-22T01:01:08;15.40;;;8.80;;
21848;SDS011;11089;49.852;19.700;2022-10-22T01:04:15;17.85;;;9.95;;
21848;SDS011;11089;49.852;19.700;2022-10-22T01:07:18;19.20;;;9.95;;
21848;SDS011;11089;49.852;19.700;2022-10-22T01:13:46;19.33;;;9.40;;
21848;SDS011;11089;49.852;19.700;2022-10-22T01:16:58;18.25;;;10.00;;
21848;SDS011;11089;49.852;19.700;2022-10-22T01:30:13;15.75;;;9.07;;
21848;SDS011;11089;49.852;19.700;2022-10-22T01:33:15;16.23;;;8.75;;
21848;SDS011;11089;49.852;19.700;2022-10-22T01:36:20;17.58;;;9.23;;
21848;SDS011;11089;49.852;19.700;2022-10-22T01:39:21;19.55;;;10.00;;
21848;SDS011;11089;49.852;19.700;2022-10-22T01:42:24;15.32;;;9.32;;
21848;SDS011;11089;49.852;19.700;2022-10-22T01:45:26;17.60;;;8.85;;
21848;SDS011;11089;49.852;19.700;2022-10-22T01:52:03;15.88;;;9.13;;
21848;SDS011;11089;49.852;19.700;2022-10-22T02:02:04;23.30;;;9.63;;
21848;SDS011;11089;49.852;19.700;2022-10-22T02:05:31;18.10;;;9.50;;
21848;SDS011;11089;49.852;19.700;2022-10-22T02:08:45;19.20;;;9.77;;
21848;SDS011;11089;49.852;19.700;2022-10-22T02:11:48;21.20;;;9.82;;
21848;SDS011;11089;49.852;19.700;2022-10-22T02:14:50;20.73;;;10.18;;
21848;SDS011;11089;49.852;19.700;2022-10-22T02:17:52;16.70;;;9.85;;
21848;SDS011;11089;49.852;19.700;2022-10-22T02:20:55;20.83;;;10.52;;
21848;SDS011;11089;49.852;19.700;2022-10-22T02:23:58;18.05;;;10.07;;
21848;SDS011;11089;49.852;19.700;2022-10-22T02:30:17;19.33;;;10.10;;
21848;SDS011;11089;49.852;19.700;2022-10-22T02:33:21;24.08;;;11.57;;
21848;SDS011;11089;49.852;19.700;2022-10-22T02:36:26;18.17;;;10.40;;
21848;SDS011;11089;49.852;19.700;2022-10-22T02:39:27;17.75;;;9.90;;
21848;SDS011;11089;49.852;19.700;2022-10-22T02:42:30;23.27;;;11.40;;
21848;SDS011;11089;49.852;19.700;2022-10-22T02:45:32;22.80;;;10.35;;
21848;SDS011;11089;49.852;19.700;2022-10-22T02:48:34;20.65;;;10.02;;
21848;SDS011;11089;49.852;19.700;2022-10-22T02:51:35;19.08;;;9.65;;
21848;SDS011;11089;49.852;19.700;2022-10-22T02:54:36;19.08;;;9.82;;
21848;SDS011;11089;49.852;19.700;2022-10-22T02:57:37;19.48;;;10.35;;
21848;SDS011;11089;49.852;19.700;2022-10-22T03:00:38;18.98;;;10.60;;
21848;SDS011;11089;49.852;19.700;2022-10-22T03:03:39;19.50;;;10.55;;
21848;SDS011;11089;49.852;19.700;2022-10-22T03:06:40;20.58;;;10.35;;
21848;SDS011;11089;49.852;19.700;2022-10-22T03:09:43;20.58;;;10.35;;
21848;SDS011;11089;49.852;19.700;2022-10-22T03:12:44;20.67;;;10.48;;
21848;SDS011;11089;49.852;19.700;2022-10-22T03:15:47;21.83;;;10.70;;
21848;SDS011;11089;49.852;19.700;2022-10-22T03:18:49;20.35;;;10.13;;
21848;SDS011;11089;49.852;19.700;2022-10-22T03:21:54;20.70;;;9.95;;
21848;SDS011;11089;49.852;19.700;2022-10-22T03:24:59;23.38;;;9.45;;
21848;SDS011;11089;49.852;19.700;2022-10-22T03:28:04;19.67;;;10.68;;
21848;SDS011;11089;49.852;19.700;2022-10-22T03:31:08;19.52;;;10.52;;
21848;SDS011;11089;49.852;19.700;2022-10-22T03:34:09;19.08;;;10.57;;
21848;SDS011;11089;49.852;19.700;2022-10-22T03:37:12;19.85;;;10.38;;
21848;SDS011;11089;49.852;19.700;2022-10-22T03:40:13;19.48;;;10.45;;
21848;SDS011;11089;49.852;19.700;2022-10-22T03:43:15;20.63;;;10.32;;
21848;SDS011;11089;49.852;19.700;2022-10-22T03:46:16;22.83;;;10.23;;
21848;SDS011;11089;49.852;19.700;2022-10-22T03:49:18;17.15;;;9.65;;
21848;SDS011;11089;49.852;19.700;2022-10-22T03:52:19;19.95;;;10.38;;
21848;SDS011;11089;49.852;19.700;2022-10-22T03:55:20;18.73;;;9.90;;
21848;SDS011;11089;49.852;19.700;2022-10-22T03:58:21;17.27;;;10.20;;
21848;SDS011;11089;49.852;19.700;2022-10-22T04:01:22;21.63;;;10.68;;
21848;SDS011;11089;49.852;19.700;2022-10-22T04:04:23;25.63;;;11.20;;
21848;SDS011;11089;49.852;19.700;2022-10-22T04:07:24;17.40;;;9.93;;
21848;SDS011;11089;49.852;19.700;2022-10-22T04:10:25;22.27;;;10.60;;
21848;SDS011;11089;49.852;19.700;2022-10-22T04:13:26;24.02;;;10.73;;
21848;SDS011;11089;49.852;19.700;2022-10-22T04:16:27;19.45;;;10.65;;
21848;SDS011;11089;49.852;19.700;2022-10-22T04:19:30;23.05;;;10.55;;
21848;SDS011;11089;49.852;19.700;2022-10-22T04:22:32;17.67;;;9.45;;
21848;SDS011;11089;49.852;19.700;2022-10-22T04:25:34;21.23;;;10.73;;
21848;SDS011;11089;49.852;19.700;2022-10-22T04:28:35;21.30;;;10.82;;
21848;SDS011;11089;49.852;19.700;2022-10-22T04:31:36;24.92;;;11.30;;
21848;SDS011;11089;49.852;19.700;2022-10-22T04:34:36;21.60;;;10.75;;
21848;SDS011;11089;49.852;19.700;2022-10-22T04:37:37;20.40;;;10.43;;
21848;SDS011;11089;49.852;19.700;2022-10-22T04:40:38;19.63;;;10.38;;
21848;SDS011;11089;49.852;19.700;2022-10-22T04:43:39;23.25;;;11.13;;
21848;SDS011;11089;49.852;19.700;2022-10-22T04:46:41;22.27;;;9.90;;
21848;SDS011;11089;49.852;19.700;2022-10-22T04:49:41;20.77;;;10.73;;
21848;SDS011;11089;49.852;19.700;2022-10-22T04:52:42;23.88;;;13.20;;
21848;SDS011;11089;49.852;19.700;2022-10-22T04:55:43;20.25;;;10.73;;
21848;SDS011;11089;49.852;19.700;2022-10-22T04:58:44;19.90;;;11.40;;
21848;SDS011;11089;49.852;19.700;2022-10-22T05:01:49;21.77;;;11.63;;
21848;SDS011;11089;49.852;19.700;2022-10-22T05:04:50;24.75;;;11.98;;
21848;SDS011;11089;49.852;19.700;2022-10-22T05:07:51;23.65;;;12.05;;
21848;SDS011;11089;49.852;19.700;2022-10-22T05:10:52;21.70;;;11.15;;
21848;SDS011;11089;49.852;19.700;2022-10-22T05:13:56;18.20;;;9.82;;
21848;SDS011;11089;49.852;19.700;2022-10-22T05:16:58;19.35;;;11.15;;
21848;SDS011;11089;49.852;19.700;2022-10-22T05:19:59;25.70;;;12.65;;
21848;SDS011;11089;49.852;19.700;2022-10-22T05:23:00;28.58;;;13.70;;
21848;SDS011;11089;49.852;19.700;2022-10-22T05:26:02;23.95;;;12.02;;
21848;SDS011;11089;49.852;19.700;2022-10-22T05:29:04;24.92;;;11.95;;
21848;SDS011;11089;49.852;19.700;2022-10-22T05:32:05;27.00;;;12.98;;
21848;SDS011;11089;49.852;19.700;2022-10-22T05:35:06;27.27;;;13.55;;
21848;SDS011;11089;49.852;19.700;2022-10-22T05:38:07;25.08;;;12.68;;
21848;SDS011;11089;49.852;19.700;2022-10-22T05:41:09;23.83;;;12.70;;
21848;SDS011;11089;49.852;19.700;2022-10-22T05:44:18;24.17;;;12.02;;
21848;SDS011;11089;49.852;19.700;2022-10-22T05:47:19;22.95;;;12.23;;
21848;SDS011;11089;49.852;19.700;2022-10-22T05:50:20;20.60;;;10.73;;
21848;SDS011;11089;49.852;19.700;2022-10-22T05:53:21;24.23;;;12.40;;
21848;SDS011;11089;49.852;19.700;2022-10-22T05:56:22;24.63;;;12.82;;
21848;SDS011;11089;49.852;19.700;2022-10-22T05:59:24;24.48;;;12.52;;
21848;SDS011;11089;49.852;19.700;2022-10-22T06:02:25;23.00;;;12.27;;
21848;SDS011;11089;49.852;19.700;2022-10-22T06:05:26;21.95;;;11.75;;
21848;SDS011;11089;49.852;19.700;2022-10-22T06:08:27;22.17;;;11.73;;
21848;SDS011;11089;49.852;19.700;2022-10-22T06:11:29;23.45;;;12.02;;
21848;SDS011;11089;49.852;19.700;2022-10-22T06:14:30;20.30;;;11.60;;
21848;SDS011;11089;49.852;19.700;2022-10-22T06:17:31;21.55;;;10.90;;
21848;SDS011;11089;49.852;19.700;2022-10-22T06:20:33;22.25;;;11.18;;
21848;SDS011;11089;49.852;19.700;2022-10-22T06:23:34;21.38;;;10.50;;
21848;SDS011;11089;49.852;19.700;2022-10-22T06:26:36;19.95;;;10.90;;
21848;SDS011;11089;49.852;19.700;2022-10-22T06:29:37;23.45;;;10.95;;
21848;SDS011;11089;49.852;19.700;2022-10-22T06:32:38;21.45;;;10.73;;
21848;SDS011;11089;49.852;19.700;2022-10-22T06:35:40;25.05;;;11.73;;
21848;SDS011;11089;49.852;19.700;2022-10-22T06:38:41;19.55;;;10.35;;
21848;SDS011;11089;49.852;19.700;2022-10-22T06:41:42;17.75;;;10.35;;
21848;SDS011;11089;49.852;19.700;2022-10-22T06:44:43;18.50;;;9.02;;
21848;SDS011;11089;49.852;19.700;2022-10-22T06:47:44;17.05;;;8.95;;
21848;SDS011;11089;49.852;19.700;2022-10-22T06:50:46;16.30;;;9.05;;
21848;SDS011;11089;49.852;19.700;2022-10-22T06:53:47;19.75;;;10.20;;
21848;SDS011;11089;49.852;19.700;2022-10-22T06:56:48;19.80;;;10.07;;
21848;SDS011;11089;49.852;19.700;2022-10-22T06:59:49;18.73;;;9.65;;
21848;SDS011;11089;49.852;19.700;2022-10-22T07:02:51;19.80;;;10.45;;
21848;SDS011;11089;49.852;19.700;2022-10-22T07:05:52;18.73;;;9.85;;
21848;SDS011;11089;49.852;19.700;2022-10-22T07:08:56;20.92;;;10.35;;
21848;SDS011;11089;49.852;19.700;2022-10-22T07:11:58;17.85;;;9.07;;
21848;SDS011;11089;49.852;19.700;2022-10-22T07:14:59;21.98;;;10.27;;
21848;SDS011;11089;49.852;19.700;2022-10-22T07:18:00;18.23;;;10.48;;
21848;SDS011;11089;49.852;19.700;2022-10-22T07:21:04;17.15;;;8.13;;
21848;SDS011;11089;49.852;19.700;2022-10-22T07:24:05;25.73;;;13.20;;
21848;SDS011;11089;49.852;19.700;2022-10-22T07:27:07;27.60;;;15.93;;
21848;SDS011;11089;49.852;19.700;2022-10-22T07:30:08;28.98;;;16.55;;
21848;SDS011;11089;49.852;19.700;2022-10-22T07:33:09;33.13;;;18.02;;
21848;SDS011;11089;49.852;19.700;2022-10-22T07:36:12;36.25;;;20.38;;
21848;SDS011;11089;49.852;19.700;2022-10-22T07:39:16;35.28;;;17.63;;
21848;SDS011;11089;49.852;19.700;2022-10-22T07:42:17;30.80;;;15.63;;
21848;SDS011;11089;49.852;19.700;2022-10-22T07:45:18;30.50;;;15.85;;
21848;SDS011;11089;49.852;19.700;2022-10-22T07:48:19;31.80;;;14.32;;
21848;SDS011;11089;49.852;19.700;2022-10-22T07:51:20;24.52;;;14.10;;
21848;SDS011;11089;49.852;19.700;2022-10-22T07:54:21;23.88;;;14.07;;
21848;SDS011;11089;49.852;19.700;2022-10-22T07:57:23;21.33;;;12.20;;
21848;SDS011;11089;49.852;19.700;2022-10-22T08:00:24;28.23;;;14.30;;
21848;SDS011;11089;49.852;19.700;2022-10-22T08:03:25;24.20;;;13.25;;
21848;SDS011;11089;49.852;19.700;2022-10-22T08:06:26;21.65;;;11.85;;
21848;SDS011;11089;49.852;19.700;2022-10-22T08:09:27;26.15;;;15.23;;
21848;SDS011;11089;49.852;19.700;2022-10-22T08:12:28;27.98;;;14.68;;
21848;SDS011;11089;49.852;19.700;2022-10-22T08:15:29;23.95;;;14.55;;
21848;SDS011;11089;49.852;19.700;2022-10-22T08:18:30;31.20;;;18.98;;
21848;SDS011;11089;49.852;19.700;2022-10-22T08:21:31;39.55;;;20.23;;
21848;SDS011;11089;49.852;19.700;2022-10-22T08:24:32;38.40;;;20.23;;
21848;SDS011;11089;49.852;19.700;2022-10-22T08:27:33;34.53;;;18.70;;
21848;SDS011;11089;49.852;19.700;2022-10-22T08:30:35;31.30;;;17.10;;
21848;SDS011;11089;49.852;19.700;2022-10-22T08:33:37;33.33;;;17.05;;
21848;SDS011;11089;49.852;19.700;2022-10-22T08:36:39;29.83;;;17.20;;
21848;SDS011;11089;49.852;19.700;2022-10-22T08:39:40;29.80;;;16.83;;
21848;SDS011;11089;49.852;19.700;2022-10-22T08:46:10;26.88;;;15.05;;
21848;SDS011;11089;49.852;19.700;2022-10-22T08:49:23;25.88;;;14.52;;
21848;SDS011;11089;49.852;19.700;2022-10-22T08:52:27;33.05;;;17.92;;
21848;SDS011;11089;49.852;19.700;2022-10-22T08:55:32;29.60;;;14.93;;
21848;SDS011;11089;49.852;19.700;2022-10-22T08:58:37;25.33;;;14.50;;
21848;SDS011;11089;49.852;19.700;2022-10-22T09:01:51;24.00;;;14.10;;
21848;SDS011;11089;49.852;19.700;2022-10-22T09:04:56;29.70;;;17.40;;
21848;SDS011;11089;49.852;19.700;2022-10-22T09:14:32;27.63;;;16.40;;
21848;SDS011;11089;49.852;19.700;2022-10-22T09:17:36;30.05;;;17.90;;
21848;SDS011;11089;49.852;19.700;2022-10-22T09:20:48;25.33;;;14.45;;
21848;SDS011;11089;49.852;19.700;2022-10-22T09:24:01;35.28;;;17.27;;
21848;SDS011;11089;49.852;19.700;2022-10-22T09:27:13;30.05;;;14.55;;
21848;SDS011;11089;49.852;19.700;2022-10-22T09:30:18;29.98;;;15.65;;
21848;SDS011;11089;49.852;19.700;2022-10-22T09:33:25;29.05;;;13.80;;
21848;SDS011;11089;49.852;19.700;2022-10-22T09:36:30;25.25;;;13.52;;
21848;SDS011;11089;49.852;19.700;2022-10-22T09:39:34;27.75;;;15.00;;
21848;SDS011;11089;49.852;19.700;2022-10-22T09:42:38;29.52;;;16.48;;
21848;SDS011;11089;49.852;19.700;2022-10-22T09:45:40;31.80;;;15.38;;
21848;SDS011;11089;49.852;19.700;2022-10-22T09:48:42;26.70;;;14.38;;
21848;SDS011;11089;49.852;19.700;2022-10-22T09:52:04;34.22;;;16.05;;
21848;SDS011;11089;49.852;19.700;2022-10-22T09:55:27;25.23;;;14.02;;
21848;SDS011;11089;49.852;19.700;2022-10-22T09:58:28;28.17;;;14.52;;
21848;SDS011;11089;49.852;19.700;2022-10-22T10:01:34;31.40;;;13.88;;
21848;SDS011;11089;49.852;19.700;2022-10-22T10:04:41;27.55;;;13.80;;
21848;SDS011;11089;49.852;19.700;2022-10-22T10:07:46;24.35;;;14.07;;
21848;SDS011;11089;49.852;19.700;2022-10-22T10:10:48;26.15;;;13.50;;
21848;SDS011;11089;49.852;19.700;2022-10-22T10:14:08;24.65;;;13.93;;
21848;SDS011;11089;49.852;19.700;2022-10-22T10:18:42;28.95;;;16.65;;
21848;SDS011;11089;49.852;19.700;2022-10-22T10:21:32;27.67;;;15.45;;
21848;SDS011;11089;49.852;19.700;2022-10-22T10:37:29;29.25;;;15.13;;
21848;SDS011;11089;49.852;19.700;2022-10-22T10:59:58;42.83;;;21.05;;
21848;SDS011;11089;49.852;19.700;2022-10-22T11:06:21;44.97;;;21.67;;
21848;SDS011;11089;49.852;19.700;2022-10-22T11:09:27;43.17;;;22.45;;
21848;SDS011;11089;49.852;19.700;2022-10-22T11:12:38;46.53;;;22.90;;
21848;SDS011;11089;49.852;19.700;2022-10-22T11:15:45;42.25;;;21.65;;
21848;SDS011;11089;49.852;19.700;2022-10-22T11:25:17;40.15;;;22.02;;
21848;SDS011;11089;49.852;19.700;2022-10-22T11:31:31;36.72;;;21.13;;
21848;SDS011;11089;49.852;19.700;2022-10-22T11:37:49;38.20;;;21.17;;
21848;SDS011;11089;49.852;19.700;2022-10-22T11:40:56;36.05;;;20.15;;
21848;SDS011;11089;49.852;19.700;2022-10-22T11:44:10;40.83;;;21.45;;
21848;SDS011;11089;49.852;19.700;2022-10-22T11:47:26;40.70;;;21.70;;
21848;SDS011;11089;49.852;19.700;2022-10-22T11:53:40;38.70;;;20.75;;
21848;SDS011;11089;49.852;19.700;2022-10-22T11:56:41;34.50;;;19.00;;
21848;SDS011;11089;49.852;19.700;2022-10-22T12:02:47;36.55;;;18.90;;
21848;SDS011;11089;49.852;19.700;2022-10-22T12:06:20;36.03;;;19.45;;
21848;SDS011;11089;49.852;19.700;2022-10-22T12:09:26;40.50;;;21.35;;
21848;SDS011;11089;49.852;19.700;2022-10-22T12:12:34;35.83;;;21.33;;
21848;SDS011;11089;49.852;19.700;2022-10-22T12:15:48;88.10;;;47.67;;
21848;SDS011;11089;49.852;19.700;2022-10-22T12:18:57;101.40;;;55.92;;
21848;SDS011;11089;49.852;19.700;2022-10-22T12:22:17;97.53;;;56.05;;
21848;SDS011;11089;49.852;19.700;2022-10-22T12:25:25;85.20;;;48.70;;
21848;SDS011;11089;49.852;19.700;2022-10-22T12:28:36;78.75;;;45.13;;
21848;SDS011;11089;49.852;19.700;2022-10-22T12:31:40;72.75;;;41.42;;
21848;SDS011;11089;49.852;19.700;2022-10-22T12:34:52;66.25;;;38.22;;
21848;SDS011;11089;49.852;19.700;2022-10-22T12:37:54;69.38;;;39.15;;
21848;SDS011;11089;49.852;19.700;2022-10-22T12:41:12;71.30;;;38.47;;
21848;SDS011;11089;49.852;19.700;2022-10-22T12:44:14;67.88;;;38.42;;
21848;SDS011;11089;49.852;19.700;2022-10-22T12:47:17;89.35;;;51.03;;
21848;SDS011;11089;49.852;19.700;2022-10-22T12:50:19;96.38;;;51.47;;
21848;SDS011;11089;49.852;19.700;2022-10-22T12:53:24;96.57;;;50.60;;
21848;SDS011;11089;49.852;19.700;2022-10-22T12:56:30;102.88;;;54.28;;
21848;SDS011;11089;49.852;19.700;2022-10-22T12:59:36;98.63;;;53.33;;
21848;SDS011;11089;49.852;19.700;2022-10-22T13:02:38;89.25;;;47.33;;
21848;SDS011;11089;49.852;19.700;2022-10-22T13:05:42;105.45;;;53.08;;
21848;SDS011;11089;49.852;19.700;2022-10-22T13:08:43;93.55;;;51.22;;
21848;SDS011;11089;49.852;19.700;2022-10-22T13:12:02;89.68;;;48.88;;
21848;SDS011;11089;49.852;19.700;2022-10-22T13:18:31;82.20;;;43.28;;
21848;SDS011;11089;49.852;19.700;2022-10-22T13:21:34;94.70;;;48.15;;
21848;SDS011;11089;49.852;19.700;2022-10-22T13:24:47;90.28;;;49.13;;
21848;SDS011;11089;49.852;19.700;2022-10-22T13:27:50;86.30;;;46.28;;
21848;SDS011;11089;49.852;19.700;2022-10-22T13:30:57;82.35;;;47.05;;
21848;SDS011;11089;49.852;19.700;2022-10-22T13:34:01;74.90;;;40.88;;
21848;SDS011;11089;49.852;19.700;2022-10-22T13:37:07;66.78;;;38.03;;
21848;SDS011;11089;49.852;19.700;2022-10-22T13:40:11;68.47;;;38.65;;
21848;SDS011;11089;49.852;19.700;2022-10-22T13:43:14;79.72;;;42.83;;
21848;SDS011;11089;49.852;19.700;2022-10-22T13:46:16;72.97;;;40.05;;
21848;SDS011;11089;49.852;19.700;2022-10-22T13:49:19;75.57;;;41.83;;
21848;SDS011;11089;49.852;19.700;2022-10-22T13:52:31;77.40;;;40.78;;
21848;SDS011;11089;49.852;19.700;2022-10-22T13:55:39;68.20;;;39.05;;
21848;SDS011;11089;49.852;19.700;2022-10-22T13:58:40;76.55;;;41.40;;
21848;SDS011;11089;49.852;19.700;2022-10-22T14:01:42;86.03;;;46.08;;
21848;SDS011;11089;49.852;19.700;2022-10-22T14:04:44;92.90;;;48.88;;
21848;SDS011;11089;49.852;19.700;2022-10-22T14:07:46;101.70;;;55.08;;
21848;SDS011;11089;49.852;19.700;2022-10-22T14:10:47;91.07;;;50.22;;
21848;SDS011;11089;49.852;19.700;2022-10-22T14:13:48;86.97;;;49.22;;
21848;SDS011;11089;49.852;19.700;2022-10-22T14:16:49;79.95;;;46.20;;
21848;SDS011;11089;49.852;19.700;2022-10-22T14:19:50;80.88;;;45.22;;
21848;SDS011;11089;49.852;19.700;2022-10-22T14:22:51;86.82;;;47.15;;
21848;SDS011;11089;49.852;19.700;2022-10-22T14:25:53;73.53;;;42.72;;
21848;SDS011;11089;49.852;19.700;2022-10-22T14:28:54;79.20;;;44.35;;
21848;SDS011;11089;49.852;19.700;2022-10-22T14:31:55;77.25;;;43.38;;
21848;SDS011;11089;49.852;19.700;2022-10-22T14:34:56;70.30;;;40.92;;
21848;SDS011;11089;49.852;19.700;2022-10-22T14:37:58;74.70;;;40.90;;
21848;SDS011;11089;49.852;19.700;2022-10-22T14:40:59;83.30;;;47.50;;
21848;SDS011;11089;49.852;19.700;2022-10-22T14:44:00;72.82;;;42.63;;
21848;SDS011;11089;49.852;19.700;2022-10-22T14:47:01;90.60;;;49.13;;
21848;SDS011;11089;49.852;19.700;2022-10-22T14:50:02;93.13;;;48.72;;
21848;SDS011;11089;49.852;19.700;2022-10-22T14:53:03;99.78;;;54.60;;
21848;SDS011;11089;49.852;19.700;2022-10-22T14:56:04;135.25;;;70.95;;
21848;SDS011;11089;49.852;19.700;2022-10-22T14:59:05;112.47;;;58.75;;
21848;SDS011;11089;49.852;19.700;2022-10-22T15:02:09;106.45;;;53.72;;
21848;SDS011;11089;49.852;19.700;2022-10-22T15:05:14;97.30;;;52.45;;
21848;SDS011;11089;49.852;19.700;2022-10-22T15:08:16;92.53;;;49.40;;
21848;SDS011;11089;49.852;19.700;2022-10-22T15:11:17;68.47;;;36.58;;
21848;SDS011;11089;49.852;19.700;2022-10-22T15:14:18;53.55;;;28.75;;
21848;SDS011;11089;49.852;19.700;2022-10-22T15:17:19;39.28;;;21.23;;
21848;SDS011;11089;49.852;19.700;2022-10-22T15:20:20;42.03;;;23.63;;
21848;SDS011;11089;49.852;19.700;2022-10-22T15:23:21;39.20;;;23.45;;
21848;SDS011;11089;49.852;19.700;2022-10-22T15:26:22;39.88;;;21.00;;
21848;SDS011;11089;49.852;19.700;2022-10-22T15:29:23;37.83;;;19.77;;
21848;SDS011;11089;49.852;19.700;2022-10-22T15:32:25;29.05;;;18.65;;
21848;SDS011;11089;49.852;19.700;2022-10-22T15:35:27;35.17;;;19.92;;
21848;SDS011;11089;49.852;19.700;2022-10-22T15:38:28;26.55;;;17.23;;
21848;SDS011;11089;49.852;19.700;2022-10-22T15:41:29;33.22;;;18.20;;
21848;SDS011;11089;49.852;19.700;2022-10-22T15:44:30;31.25;;;17.85;;
21848;SDS011;11089;49.852;19.700;2022-10-22T15:47:32;31.08;;;18.13;;
21848;SDS011;11089;49.852;19.700;2022-10-22T15:50:36;31.40;;;18.63;;
21848;SDS011;11089;49.852;19.700;2022-10-22T15:53:37;31.40;;;18.63;;
21848;SDS011;11089;49.852;19.700;2022-10-22T15:56:39;26.13;;;15.25;;
21848;SDS011;11089;49.852;19.700;2022-10-22T15:59:40;26.75;;;15.18;;
21848;SDS011;11089;49.852;19.700;2022-10-22T16:02:41;24.90;;;14.50;;
21848;SDS011;11089;49.852;19.700;2022-10-22T16:05:49;27.02;;;16.30;;
21848;SDS011;11089;49.852;19.700;2022-10-22T16:08:55;26.27;;;14.98;;
21848;SDS011;11089;49.852;19.700;2022-10-22T16:11:57;23.77;;;14.80;;
21848;SDS011;11089;49.852;19.700;2022-10-22T16:14:58;23.83;;;14.25;;
21848;SDS011;11089;49.852;19.700;2022-10-22T16:17:59;22.85;;;14.05;;
21848;SDS011;11089;49.852;19.700;2022-10-22T16:20:59;25.67;;;14.98;;
21848;SDS011;11089;49.852;19.700;2022-10-22T16:24:00;27.10;;;15.30;;
21848;SDS011;11089;49.852;19.700;2022-10-22T16:27:01;25.15;;;15.18;;
21848;SDS011;11089;49.852;19.700;2022-10-22T16:30:03;24.55;;;14.10;;
21848;SDS011;11089;49.852;19.700;2022-10-22T16:33:05;21.08;;;13.70;;
21848;SDS011;11089;49.852;19.700;2022-10-22T16:36:09;26.98;;;15.07;;
21848;SDS011;11089;49.852;19.700;2022-10-22T16:39:12;30.23;;;18.20;;
21848;SDS011;11089;49.852;19.700;2022-10-22T16:42:13;27.15;;;16.73;;
21848;SDS011;11089;49.852;19.700;2022-10-22T16:45:14;24.30;;;15.70;;
21848;SDS011;11089;49.852;19.700;2022-10-22T16:48:16;29.20;;;16.15;;
21848;SDS011;11089;49.852;19.700;2022-10-22T16:51:19;32.17;;;16.20;;
21848;SDS011;11089;49.852;19.700;2022-10-22T16:54:22;25.23;;;14.82;;
21848;SDS011;11089;49.852;19.700;2022-10-22T16:57:23;25.10;;;14.65;;
21848;SDS011;11089;49.852;19.700;2022-10-22T17:00:24;25.35;;;15.02;;
21848;SDS011;11089;49.852;19.700;2022-10-22T17:03:25;26.52;;;16.05;;
21848;SDS011;11089;49.852;19.700;2022-10-22T17:06:26;27.50;;;15.73;;
21848;SDS011;11089;49.852;19.700;2022-10-22T17:09:27;28.02;;;15.98;;
21848;SDS011;11089;49.852;19.700;2022-10-22T17:12:28;26.98;;;16.10;;
21848;SDS011;11089;49.852;19.700;2022-10-22T17:15:34;25.88;;;16.05;;
21848;SDS011;11089;49.852;19.700;2022-10-22T17:18:36;27.08;;;16.40;;
21848;SDS011;11089;49.852;19.700;2022-10-22T17:21:39;28.30;;;17.75;;
21848;SDS011;11089;49.852;19.700;2022-10-22T17:24:40;37.20;;;21.98;;
21848;SDS011;11089;49.852;19.700;2022-10-22T17:27:43;50.58;;;23.95;;
21848;SDS011;11089;49.852;19.700;2022-10-22T17:30:44;45.38;;;26.52;;
21848;SDS011;11089;49.852;19.700;2022-10-22T17:33:45;57.38;;;31.15;;
21848;SDS011;11089;49.852;19.700;2022-10-22T17:36:46;62.70;;;35.55;;
21848;SDS011;11089;49.852;19.700;2022-10-22T17:39:47;69.55;;;39.17;;
21848;SDS011;11089;49.852;19.700;2022-10-22T17:42:48;68.00;;;37.53;;
21848;SDS011;11089;49.852;19.700;2022-10-22T17:45:49;70.93;;;38.67;;
21848;SDS011;11089;49.852;19.700;2022-10-22T17:48:50;62.47;;;35.03;;
21848;SDS011;11089;49.852;19.700;2022-10-22T17:51:53;59.67;;;34.28;;
21848;SDS011;11089;49.852;19.700;2022-10-22T17:54:54;63.15;;;35.55;;
21848;SDS011;11089;49.852;19.700;2022-10-22T17:57:55;55.22;;;32.08;;
21848;SDS011;11089;49.852;19.700;2022-10-22T18:00:56;59.22;;;35.28;;
21848;SDS011;11089;49.852;19.700;2022-10-22T18:03:58;56.33;;;33.53;;
21848;SDS011;11089;49.852;19.700;2022-10-22T18:07:00;65.70;;;36.65;;
21848;SDS011;11089;49.852;19.700;2022-10-22T18:10:01;65.05;;;35.40;;
21848;SDS011;11089;49.852;19.700;2022-10-22T18:13:03;62.97;;;32.90;;
21848;SDS011;11089;49.852;19.700;2022-10-22T18:16:03;61.47;;;32.08;;
21848;SDS011;11089;49.852;19.700;2022-10-22T18:19:05;50.70;;;27.40;;
21848;SDS011;11089;49.852;19.700;2022-10-22T18:22:06;36.58;;;21.13;;
21848;SDS011;11089;49.852;19.700;2022-10-22T18:25:07;27.65;;;16.42;;
21848;SDS011;11089;49.852;19.700;2022-10-22T18:28:12;26.73;;;15.93;;
21848;SDS011;11089;49.852;19.700;2022-10-22T18:31:18;38.33;;;18.45;;
21848;SDS011;11089;49.852;19.700;2022-10-22T18:34:20;33.88;;;19.13;;
21848;SDS011;11089;49.852;19.700;2022-10-22T18:37:21;31.05;;;17.27;;
21848;SDS011;11089;49.852;19.700;2022-10-22T18:40:22;22.60;;;13.15;;
21848;SDS011;11089;49.852;19.700;2022-10-22T18:43:23;23.83;;;13.45;;
21848;SDS011;11089;49.852;19.700;2022-10-22T18:46:24;25.35;;;14.18;;
21848;SDS011;11089;49.852;19.700;2022-10-22T18:49:26;27.80;;;14.88;;
21848;SDS011;11089;49.852;19.700;2022-10-22T18:55:28;35.53;;;18.50;;
21848;SDS011;11089;49.852;19.700;2022-10-22T18:58:29;37.17;;;20.25;;
21848;SDS011;11089;49.852;19.700;2022-10-22T19:01:30;52.90;;;21.85;;
21848;SDS011;11089;49.852;19.700;2022-10-22T19:04:33;73.03;;;30.90;;
21848;SDS011;11089;49.852;19.700;2022-10-22T19:07:36;63.10;;;29.27;;
21848;SDS011;11089;49.852;19.700;2022-10-22T19:10:37;46.03;;;22.67;;
21848;SDS011;11089;49.852;19.700;2022-10-22T19:13:38;34.38;;;18.90;;
21848;SDS011;11089;49.852;19.700;2022-10-22T19:16:40;40.28;;;20.33;;